Main page
METAR-TAF:

METAR-TAF

Airports :

In Amenas Airport

In Aménas, Algeria

latitude: 28-03N, longitude: 009-38E, elevation: 562 m

Current weather observation

The report was made 2 hours and 5 minutes ago, at 03:00 UTC
Wind 7 kt from the East/Northeast
Temperature 23°C
Humidity 36%
Pressure 1015 hPa
Visibility 10 km or more
no clouds below 1500 m and no cumulonimbus

METAR: DAUZ 250300Z 06007KT CAVOK 23/07 Q1015

Time: 06:05 (05:05 UTC)

Forecast

The report was made 6 hours and 5 minutes ago, at 23:00 UTC
Forecast valid from 25 at 00 UTC to 25 at 24 UTC
Wind 2 kt from variable directions
Visibility 10 km or more
Few clouds at a height of 4000 ft
Becoming
from 25 at 05 UTC to 25 at 07 UTC
Wind 12 kt from the East
Becoming
from 25 at 10 UTC to 25 at 12 UTC
Wind 10 kt from the South
Becoming
from 25 at 15 UTC to 25 at 17 UTC
Wind 2 kt from variable directions

TAF: DAUZ 242300Z 2500/2524 VRB02KT 9999 FEW040 BECMG 2505/2507 10012KT BECMG 2510/2512 18010KT BECMG 2515/2517 VRB02KT

Weather observations and forecasts of more than 4000 airports (METAR and TAF reports).

The available stations are represented by yellow and red dots on the map.

Hover mouse over dot to see the name of the station.

Then click to see weather observations and forecasts.

To change the map : click on the green buttons with a black cross to zoom in, on the green button with a dash to zoom out, or on the green arrows for adjacent maps.


METAR-TAF: